Time;durP1;ratioP1;P1;durP2;ratioP2;P2;SDS_P1;SDS_P2;PMS_P1;PMS_P2;Temp;Humidity;BMP_temperature;BMP_pressure;BME280_temperature;BME280_humidity;BME280_pressure;Samples;Min_cycle;Max_cycle;Signal;HPM_P1;HPM_P2
2021/04/23 00:00:59;;;;;;;12.63;5.45;;;8.00;99.90;;;;;;5072651;28;20032;-69
2021/04/23 00:03:41;;;;;;;14.15;4.55;;;8.00;99.90;;;;;;5073999;28;20033;-69
2021/04/23 00:06:18;;;;;;;11.25;4.88;;;7.90;99.90;;;;;;5069502;28;20033;-69
2021/04/23 00:08:48;;;;;;;15.60;5.00;;;7.80;99.90;;;;;;5079528;28;20025;-69
2021/04/23 00:11:16;;;;;;;12.93;4.35;;;7.70;99.90;;;;;;5068314;28;20036;-69
2021/04/23 00:13:42;;;;;;;14.15;4.18;;;7.70;99.90;;;;;;5072972;28;20073;-69
2021/04/23 00:16:10;;;;;;;12.38;5.00;;;7.70;99.90;;;;;;5071568;28;20419;-69
2021/04/23 00:18:36;;;;;;;10.75;5.18;;;7.60;99.90;;;;;;5072984;28;20029;-69
2021/04/23 00:21:03;;;;;;;12.13;5.22;;;7.50;99.90;;;;;;5071439;28;20041;-69
2021/04/23 00:23:29;;;;;;;14.02;4.88;;;7.40;99.90;;;;;;5072406;28;20036;-69
2021/04/23 00:25:55;;;;;;;17.58;4.88;;;7.40;99.90;;;;;;5073968;28;20019;-69
2021/04/23 00:28:21;;;;;;;14.15;5.13;;;7.30;99.90;;;;;;5072630;28;20106;-69
2021/04/23 00:30:51;;;;;;;13.23;5.68;;;7.20;99.90;;;;;;5072927;28;20035;-68
2021/04/23 00:33:18;;;;;;;18.17;5.13;;;7.20;99.90;;;;;;5071250;28;20044;-69
2021/04/23 00:35:47;;;;;;;14.68;5.43;;;7.20;99.90;;;;;;5071872;28;20507;-69
2021/04/23 00:38:16;;;;;;;15.07;5.13;;;7.20;99.90;;;;;;5074026;28;20040;-69
2021/04/23 00:40:57;;;;;;;19.05;5.50;;;7.10;99.90;;;;;;5067504;28;20028;-69
2021/04/23 00:43:26;;;;;;;17.83;4.95;;;7.10;99.90;;;;;;5070320;28;20060;-69
2021/04/23 00:45:53;;;;;;;16.55;5.68;;;7.00;99.90;;;;;;5072360;28;20036;-69
2021/04/23 00:48:19;;;;;;;11.75;4.82;;;7.00;99.90;;;;;;5069579;28;20103;-69
2021/04/23 00:51:06;;;;;;;16.05;5.57;;;7.00;99.90;;;;;;5081583;28;20480;-69
2021/04/23 00:53:36;;;;;;;14.10;5.05;;;6.90;99.90;;;;;;5074099;28;20124;-69
2021/04/23 00:56:06;;;;;;;10.43;5.35;;;6.80;99.90;;;;;;5079495;28;20038;-70
2021/04/23 00:58:34;;;;;;;11.30;4.57;;;6.90;99.90;;;;;;5071806;28;20064;-69
2021/04/23 01:01:16;;;;;;;10.73;5.47;;;6.80;99.90;;;;;;5070337;28;20016;-69
2021/04/23 01:03:42;;;;;;;15.25;5.85;;;6.60;99.90;;;;;;5072728;28;20032;-69
2021/04/23 01:06:16;;;;;;;10.15;5.63;;;6.60;99.90;;;;;;5072788;28;20019;-69
2021/04/23 01:08:44;;;;;;;14.02;6.65;;;6.50;99.90;;;;;;5071858;28;20040;-69
2021/04/23 01:11:10;;;;;;;17.90;6.43;;;6.40;99.90;;;;;;5069600;28;20025;-69
2021/04/23 01:13:36;;;;;;;12.43;6.00;;;6.40;99.90;;;;;;5071464;28;20047;-69
2021/04/23 01:16:05;;;;;;;13.52;6.53;;;6.40;99.90;;;;;;5071328;28;20477;-69
2021/04/23 01:18:32;;;;;;;13.82;5.80;;;6.40;99.90;;;;;;5073094;28;20035;-69
2021/04/23 01:21:06;;;;;;;16.48;5.65;;;6.40;99.90;;;;;;5074345;28;20580;-69
2021/04/23 01:23:33;;;;;;;10.35;5.85;;;6.40;99.90;;;;;;5069351;28;20040;-69
2021/04/23 01:25:59;;;;;;;18.30;6.40;;;6.40;99.90;;;;;;5068286;28;20029;-69
2021/04/23 01:28:25;;;;;;;15.00;6.07;;;6.40;99.90;;;;;;5069428;28;20024;-69
2021/04/23 01:30:51;;;;;;;14.02;6.28;;;6.40;99.90;;;;;;5075601;28;20484;-69
2021/04/23 01:33:17;;;;;;;13.35;5.53;;;6.40;99.90;;;;;;5072393;28;20115;-70
2021/04/23 01:35:43;;;;;;;17.80;6.03;;;6.30;99.90;;;;;;5073099;28;20028;-70
2021/04/23 01:38:09;;;;;;;15.02;6.55;;;6.20;99.90;;;;;;5070455;28;20028;-69
2021/04/23 01:40:36;;;;;;;14.60;5.30;;;6.20;99.90;;;;;;5070382;28;20100;-69
2021/04/23 01:43:02;;;;;;;11.90;5.22;;;6.10;99.90;;;;;;5070494;28;20086;-69
2021/04/23 01:45:28;;;;;;;15.18;6.10;;;6.00;99.90;;;;;;5074826;28;20024;-69
2021/04/23 01:47:54;;;;;;;13.93;6.07;;;5.90;99.90;;;;;;5068487;28;20021;-69
2021/04/23 01:50:20;;;;;;;15.27;6.38;;;6.00;99.90;;;;;;5069200;28;20094;-69
2021/04/23 01:52:48;;;;;;;15.15;5.28;;;5.90;99.90;;;;;;5071384;28;20029;-69
2021/04/23 01:55:16;;;;;;;13.20;5.68;;;5.80;99.90;;;;;;5071167;28;20526;-69
2021/04/23 01:57:41;;;;;;;18.30;5.72;;;5.80;99.90;;;;;;5072698;28;20032;-69
2021/04/23 02:00:12;;;;;;;13.93;5.75;;;5.80;99.90;;;;;;5072238;28;20409;-69
2021/04/23 02:02:38;;;;;;;17.90;6.07;;;5.80;99.90;;;;;;5071858;28;20065;-69
2021/04/23 02:05:06;;;;;;;14.98;6.55;;;5.60;99.90;;;;;;5069693;28;20108;-69
2021/04/23 02:07:32;;;;;;;12.80;6.53;;;5.50;99.90;;;;;;5070127;28;20378;-69
2021/04/23 02:09:58;;;;;;;21.13;6.32;;;5.60;99.90;;;;;;5070785;28;20044;-69
2021/04/23 02:12:24;;;;;;;22.15;6.07;;;5.70;99.90;;;;;;5067990;28;20024;-69
2021/04/23 02:14:49;;;;;;;18.77;5.70;;;5.70;99.90;;;;;;5075292;28;20039;-69
2021/04/23 02:17:16;;;;;;;13.70;6.57;;;5.60;99.90;;;;;;5065677;28;20036;-69
2021/04/23 02:19:42;;;;;;;15.38;6.43;;;5.60;99.90;;;;;;5072991;28;20024;-69
2021/04/23 02:22:08;;;;;;;17.38;5.85;;;5.50;99.90;;;;;;5069419;28;20021;-69
2021/04/23 02:24:33;;;;;;;17.08;6.65;;;5.50;99.90;;;;;;5069715;28;20033;-69
2021/04/23 02:26:59;;;;;;;18.27;6.78;;;5.50;99.90;;;;;;5072112;28;20478;-69
2021/04/23 02:29:25;;;;;;;16.40;6.78;;;5.50;99.90;;;;;;5070656;28;20028;-69
2021/04/23 02:31:54;;;;;;;18.42;6.50;;;5.50;99.90;;;;;;5069846;28;20476;-69
2021/04/23 02:34:25;;;;;;;15.73;6.55;;;5.50;99.90;;;;;;5070260;28;20021;-69
2021/04/23 02:36:52;;;;;;;14.45;6.57;;;5.60;99.90;;;;;;5071726;28;20025;-69
2021/04/23 02:39:19;;;;;;;12.15;6.32;;;5.60;99.90;;;;;;5075199;28;20093;-69
2021/04/23 02:41:48;;;;;;;17.88;6.65;;;5.50;99.90;;;;;;5070129;28;20024;-69
2021/04/23 02:44:15;;;;;;;14.18;6.68;;;5.40;99.90;;;;;;5075042;28;20029;-69
2021/04/23 02:46:42;;;;;;;14.07;6.55;;;5.40;99.90;;;;;;5071752;28;20103;-69
2021/04/23 02:49:08;;;;;;;14.15;6.45;;;5.20;99.90;;;;;;5067636;28;20033;-69
2021/04/23 02:51:38;;;;;;;15.38;6.43;;;5.00;99.90;;;;;;5065544;28;20105;-69
2021/04/23 02:54:04;;;;;;;19.13;6.63;;;4.90;99.90;;;;;;5070810;28;20473;-69
2021/04/23 02:56:31;;;;;;;18.50;6.93;;;4.80;99.90;;;;;;5071339;28;20081;-69
2021/04/23 02:58:58;;;;;;;18.35;7.30;;;4.80;99.90;;;;;;5071556;28;20044;-69
2021/04/23 03:01:41;;;;;;;13.15;6.30;;;4.70;99.90;;;;;;5075215;28;20127;-69
2021/04/23 03:04:07;;;;;;;15.13;6.57;;;4.70;99.90;;;;;;5070532;28;20070;-69
2021/04/23 03:06:33;;;;;;;17.65;6.80;;;4.70;99.90;;;;;;5070563;28;20033;-70
2021/04/23 03:08:59;;;;;;;14.13;6.22;;;4.60;99.90;;;;;;5072408;28;20036;-69
2021/04/23 03:11:26;;;;;;;16.27;6.35;;;4.60;99.90;;;;;;5072975;28;20068;-69
2021/04/23 03:13:55;;;;;;;21.23;7.72;;;4.70;99.90;;;;;;5068717;28;20031;-70
2021/04/23 03:16:22;;;;;;;14.52;7.57;;;4.70;99.90;;;;;;5070572;28;20021;-70
2021/04/23 03:18:48;;;;;;;18.17;6.95;;;4.70;99.90;;;;;;5070909;28;20051;-69
2021/04/23 03:21:16;;;;;;;13.48;7.18;;;4.70;99.90;;;;;;5066543;28;20032;-70
2021/04/23 03:23:44;;;;;;;17.67;7.22;;;4.70;99.90;;;;;;5069878;28;20143;-69
2021/04/23 03:26:11;;;;;;;18.75;6.40;;;4.80;99.90;;;;;;5066019;28;20350;-69
2021/04/23 03:28:39;;;;;;;16.33;5.53;;;4.80;99.90;;;;;;5068388;28;20096;-69
2021/04/23 03:31:06;;;;;;;14.13;6.55;;;4.70;99.90;;;;;;5074852;28;20021;-69
2021/04/23 03:33:32;;;;;;;10.20;5.22;;;4.60;99.90;;;;;;5070222;28;20021;-69
2021/04/23 03:35:59;;;;;;;10.90;5.93;;;4.60;99.90;;;;;;5072943;28;20062;-69
2021/04/23 03:38:27;;;;;;;12.88;5.97;;;4.50;99.90;;;;;;5073948;28;20118;-70
2021/04/23 03:40:53;;;;;;;18.35;6.57;;;4.50;99.90;;;;;;5068881;28;20036;-69
2021/04/23 03:43:19;;;;;;;16.33;6.30;;;4.50;99.90;;;;;;5071037;28;20040;-69
2021/04/23 03:45:45;;;;;;;12.55;6.07;;;4.60;99.90;;;;;;5072025;28;20024;-69
2021/04/23 03:48:11;;;;;;;13.05;6.38;;;4.50;99.90;;;;;;5066495;28;20037;-69
2021/04/23 03:50:39;;;;;;;15.07;6.03;;;4.60;99.90;;;;;;5068500;28;20029;-69
2021/04/23 03:53:10;;;;;;;9.90;5.68;;;4.70;99.90;;;;;;5065412;28;20036;-69
2021/04/23 03:55:43;;;;;;;16.55;6.22;;;4.70;99.90;;;;;;5065575;28;20513;-69
2021/04/23 03:58:09;;;;;;;10.57;5.63;;;4.70;99.90;;;;;;5066133;28;20067;-69
2021/04/23 04:00:42;;;;;;;13.18;6.03;;;4.60;99.90;;;;;;5072164;28;20385;-69
2021/04/23 04:03:08;;;;;;;12.10;6.18;;;4.70;99.90;;;;;;5067647;28;20389;-69
2021/04/23 04:05:34;;;;;;;21.92;7.25;;;4.60;99.90;;;;;;5071140;28;20025;-69
2021/04/23 04:08:00;;;;;;;8.75;5.57;;;4.50;99.90;;;;;;5071204;28;20517;-69
2021/04/23 04:10:27;;;;;;;8.10;5.93;;;4.40;99.90;;;;;;5075606;28;20108;-69
2021/04/23 04:12:52;;;;;;;13.40;5.50;;;4.30;99.90;;;;;;5072129;28;20030;-69
2021/04/23 04:15:18;;;;;;;16.95;7.70;;;4.20;99.90;;;;;;5070032;28;20392;-69
2021/04/23 04:17:44;;;;;;;16.40;5.82;;;4.20;99.90;;;;;;5072282;28;20029;-69
2021/04/23 04:20:12;;;;;;;11.93;5.20;;;4.20;99.90;;;;;;5068313;28;20086;-69
2021/04/23 04:22:37;;;;;;;16.90;6.50;;;4.10;99.90;;;;;;5069011;28;20046;-69
2021/04/23 04:25:05;;;;;;;16.45;5.65;;;4.10;99.90;;;;;;5074176;28;20456;-69
2021/04/23 04:27:31;;;;;;;10.43;5.90;;;4.10;99.90;;;;;;5072734;28;20025;-69
2021/04/23 04:29:57;;;;;;;13.13;5.93;;;4.10;99.90;;;;;;5072864;28;20556;-69
2021/04/23 04:32:22;;;;;;;11.73;6.00;;;4.20;99.90;;;;;;5074122;28;20028;-69
2021/04/23 04:34:48;;;;;;;15.32;6.65;;;4.30;99.90;;;;;;5071368;28;20460;-69
2021/04/23 04:37:14;;;;;;;15.52;6.07;;;4.40;99.90;;;;;;5071589;28;20362;-69
2021/04/23 04:39:40;;;;;;;15.88;7.00;;;4.20;99.90;;;;;;5068663;28;20580;-68
2021/04/23 04:42:06;;;;;;;18.05;6.45;;;4.10;99.90;;;;;;5070423;28;20071;-69
2021/04/23 04:44:32;;;;;;;15.02;6.38;;;4.10;99.90;;;;;;5072080;28;20528;-69
2021/04/23 04:46:58;;;;;;;13.23;5.72;;;4.00;99.90;;;;;;5072714;28;20040;-69
2021/04/23 04:49:24;;;;;;;14.77;5.93;;;4.00;99.90;;;;;;5075129;28;20021;-69
2021/04/23 04:51:49;;;;;;;12.82;5.70;;;4.00;99.90;;;;;;5071209;28;20588;-69
2021/04/23 04:54:15;;;;;;;15.10;5.13;;;3.90;99.90;;;;;;5068821;28;20037;-69
2021/04/23 04:56:41;;;;;;;15.93;5.95;;;4.00;99.90;;;;;;5078882;28;20484;-69
2021/04/23 04:59:07;;;;;;;9.55;5.05;;;3.90;99.90;;;;;;5072012;28;20041;-70
2021/04/23 05:01:32;;;;;;;12.00;5.75;;;3.90;99.90;;;;;;5070659;28;20029;-69
2021/04/23 05:03:58;;;;;;;12.07;5.72;;;3.90;99.90;;;;;;5072054;28;20205;-70
2021/04/23 05:06:23;;;;;;;10.63;5.30;;;3.90;99.90;;;;;;5071996;28;20021;-69
2021/04/23 05:08:49;;;;;;;12.75;4.85;;;3.90;99.90;;;;;;5071488;28;20036;-69
2021/04/23 05:11:17;;;;;;;12.95;5.45;;;3.90;99.90;;;;;;5076179;28;20031;-69
2021/04/23 05:13:43;;;;;;;12.55;5.35;;;4.00;99.90;;;;;;5073279;28;20033;-69
2021/04/23 05:16:08;;;;;;;14.85;5.95;;;4.10;99.90;;;;;;5073131;28;20031;-69
2021/04/23 05:18:34;;;;;;;15.38;5.93;;;4.20;99.90;;;;;;5071198;28;20045;-69
2021/04/23 05:21:00;;;;;;;12.80;5.78;;;4.20;99.90;;;;;;5066337;28;20036;-69
2021/04/23 05:23:26;;;;;;;15.48;6.53;;;4.10;99.90;;;;;;5074208;28;20036;-69
2021/04/23 05:25:52;;;;;;;10.73;6.25;;;4.10;99.90;;;;;;5074657;28;20055;-69
2021/04/23 05:28:18;;;;;;;14.73;6.00;;;4.20;99.90;;;;;;5067551;28;20454;-69
2021/04/23 05:30:44;;;;;;;14.60;6.28;;;4.20;99.90;;;;;;5071883;28;20099;-68
2021/04/23 05:33:10;;;;;;;13.32;6.40;;;4.20;99.90;;;;;;5072950;28;20476;-67
2021/04/23 05:35:38;;;;;;;14.35;6.10;;;4.20;99.90;;;;;;5074591;28;20020;-68
2021/04/23 05:38:04;;;;;;;17.05;6.90;;;4.10;99.90;;;;;;5071536;28;20068;-68
2021/04/23 05:40:36;;;;;;;13.65;7.13;;;4.20;99.90;;;;;;5074815;28;20051;-68
2021/04/23 05:43:05;;;;;;;15.25;6.57;;;4.30;99.90;;;;;;5072527;28;20482;-68
2021/04/23 05:45:31;;;;;;;17.42;6.45;;;4.30;99.90;;;;;;5072161;28;20028;-68
2021/04/23 05:47:57;;;;;;;13.07;6.70;;;4.30;99.90;;;;;;5071435;28;20153;-67
2021/04/23 05:50:25;;;;;;;12.63;6.80;;;4.40;99.90;;;;;;5070761;28;20557;-67
2021/04/23 05:52:51;;;;;;;17.65;7.80;;;4.50;99.90;;;;;;5069656;28;20059;-68
2021/04/23 05:55:20;;;;;;;21.15;7.72;;;4.50;99.90;;;;;;5070419;28;20032;-68
2021/04/23 05:57:46;;;;;;;23.00;8.38;;;4.60;99.90;;;;;;5073521;28;20076;-68
2021/04/23 06:00:16;;;;;;;15.80;7.25;;;4.70;99.90;;;;;;5071496;28;20081;-68
2021/04/23 06:02:42;;;;;;;18.17;8.43;;;4.80;99.90;;;;;;5069591;28;20463;-68
2021/04/23 06:05:09;;;;;;;25.77;8.10;;;4.80;99.90;;;;;;5071277;28;20020;-68
2021/04/23 06:07:35;;;;;;;16.45;7.50;;;4.90;99.90;;;;;;5082289;28;20024;-68
2021/04/23 06:10:00;;;;;;;25.52;9.68;;;5.00;99.90;;;;;;5074043;28;20035;-68
2021/04/23 06:12:27;;;;;;;21.88;9.15;;;5.10;99.90;;;;;;5060482;28;20033;-71
2021/04/23 06:14:52;;;;;;;22.42;9.20;;;5.20;99.90;;;;;;5068519;28;20051;-69
2021/04/23 06:17:18;;;;;;;20.45;8.50;;;5.20;99.90;;;;;;5076147;28;20468;-70
2021/04/23 06:19:44;;;;;;;20.65;9.07;;;5.30;99.90;;;;;;5067929;28;20193;-69
2021/04/23 06:22:09;;;;;;;29.17;10.30;;;5.40;99.90;;;;;;5067624;28;20016;-69
2021/04/23 06:24:36;;;;;;;28.08;10.20;;;5.40;99.90;;;;;;5071138;28;20510;-69
2021/04/23 06:27:02;;;;;;;25.23;9.95;;;5.50;99.90;;;;;;5074051;28;20484;-69
2021/04/23 06:29:28;;;;;;;27.38;9.63;;;5.60;99.90;;;;;;5066663;28;20025;-69
2021/04/23 06:31:55;;;;;;;24.75;10.07;;;5.70;99.90;;;;;;5068947;28;20031;-69
2021/04/23 06:34:21;;;;;;;25.83;8.45;;;5.80;99.90;;;;;;5066676;28;20790;-69
2021/04/23 06:36:47;;;;;;;27.48;8.60;;;5.80;99.90;;;;;;5069712;28;20028;-69
2021/04/23 06:39:17;;;;;;;19.33;9.02;;;5.90;99.90;;;;;;5069172;28;20029;-69
2021/04/23 06:41:43;;;;;;;20.13;8.32;;;6.00;99.90;;;;;;5070193;28;20035;-69
2021/04/23 06:44:09;;;;;;;23.67;8.25;;;6.00;99.90;;;;;;5070822;28;20370;-69
2021/04/23 06:46:35;;;;;;;17.80;7.38;;;6.10;99.90;;;;;;5073132;28;20017;-69
2021/04/23 06:49:01;;;;;;;24.40;7.97;;;6.10;99.90;;;;;;5073565;28;20099;-69
2021/04/23 06:51:27;;;;;;;21.77;7.40;;;6.20;99.90;;;;;;5070653;28;20033;-69
2021/04/23 06:53:53;;;;;;;17.85;6.72;;;6.20;99.90;;;;;;5064834;28;20043;-69
2021/04/23 06:56:19;;;;;;;17.77;7.18;;;6.30;99.90;;;;;;5069242;28;20095;-69
2021/04/23 06:58:46;;;;;;;19.92;6.85;;;6.50;99.90;;;;;;5069633;28;20067;-69
2021/04/23 07:01:16;;;;;;;16.05;6.30;;;6.60;99.90;;;;;;5067891;28;20096;-70
2021/04/23 07:03:43;;;;;;;14.77;5.45;;;6.70;99.90;;;;;;5070038;28;20473;-69
2021/04/23 07:06:09;;;;;;;17.48;6.15;;;6.80;99.90;;;;;;5069417;28;20055;-69
2021/04/23 07:08:39;;;;;;;19.38;6.72;;;6.90;99.90;;;;;;5070926;28;20028;-70
2021/04/23 07:11:05;;;;;;;20.08;6.60;;;7.10;99.90;;;;;;5065917;28;20013;-69
2021/04/23 07:13:31;;;;;;;16.27;5.80;;;7.20;99.90;;;;;;5071847;28;20033;-70
2021/04/23 07:15:57;;;;;;;11.45;4.28;;;7.40;99.90;;;;;;5065947;28;20071;-69
2021/04/23 07:18:23;;;;;;;13.15;4.13;;;7.50;99.90;;;;;;5069524;28;20048;-70
2021/04/23 07:20:48;;;;;;;10.13;4.20;;;7.60;99.90;;;;;;5066353;28;20031;-71
2021/04/23 07:23:15;;;;;;;15.27;4.15;;;7.70;99.90;;;;;;5074725;28;20028;-72
2021/04/23 07:25:41;;;;;;;16.25;4.18;;;7.90;99.90;;;;;;5070503;28;20085;-72
2021/04/23 07:28:08;;;;;;;8.43;3.78;;;8.00;99.90;;;;;;5065890;28;20029;-71
2021/04/23 07:30:35;;;;;;;13.43;3.92;;;7.90;99.90;;;;;;5074746;28;20481;-71
2021/04/23 07:33:04;;;;;;;16.05;3.85;;;7.90;99.90;;;;;;5051435;28;20051;-72
2021/04/23 07:35:30;;;;;;;13.10;3.55;;;8.00;99.90;;;;;;5065575;28;20120;-71
2021/04/23 07:37:58;;;;;;;11.88;4.00;;;8.20;99.90;;;;;;5068789;28;20442;-71
2021/04/23 07:40:25;;;;;;;18.95;4.38;;;8.20;99.90;;;;;;5072784;28;20443;-71
2021/04/23 07:42:51;;;;;;;15.32;4.22;;;8.40;99.90;;;;;;5076858;28;20024;-72
2021/04/23 07:45:18;;;;;;;10.70;4.03;;;8.60;99.90;;;;;;5070536;28;20049;-71
2021/04/23 07:47:45;;;;;;;15.05;4.07;;;8.80;99.90;;;;;;5069254;28;20023;-71
2021/04/23 07:50:13;;;;;;;28.30;5.43;;;8.80;99.90;;;;;;5067640;28;20024;-69
2021/04/23 07:52:39;;;;;;;15.63;3.97;;;9.00;99.90;;;;;;5070732;28;20020;-71
2021/04/23 07:55:06;;;;;;;10.63;3.60;;;9.10;99.90;;;;;;5064541;28;20512;-71
2021/04/23 07:57:34;;;;;;;16.85;3.92;;;9.30;99.90;;;;;;5063609;28;20028;-69
2021/04/23 07:59:59;;;;;;;12.82;3.50;;;9.60;99.90;;;;;;5069871;28;20032;-70
2021/04/23 08:02:25;;;;;;;9.85;3.60;;;9.60;99.90;;;;;;5069440;28;20017;-70
2021/04/23 08:04:51;;;;;;;10.82;3.90;;;9.50;99.90;;;;;;5070514;28;20032;-69
2021/04/23 08:07:17;;;;;;;10.70;4.18;;;9.60;99.90;;;;;;5075242;28;20066;-70
2021/04/23 08:09:42;;;;;;;8.73;3.30;;;9.80;99.90;;;;;;5075792;28;20028;-69
2021/04/23 08:12:09;;;;;;;14.18;4.10;;;9.80;99.90;;;;;;5066014;28;20052;-69
2021/04/23 08:14:35;;;;;;;12.98;3.30;;;9.80;99.90;;;;;;5066122;28;20127;-69
2021/04/23 08:17:01;;;;;;;18.52;4.82;;;9.80;99.90;;;;;;5063045;28;20044;-69
2021/04/23 08:19:27;;;;;;;12.23;3.33;;;9.90;99.90;;;;;;5081126;28;20032;-69
2021/04/23 08:21:52;;;;;;;10.60;3.85;;;10.00;99.90;;;;;;5070750;28;20433;-69
2021/04/23 08:24:18;;;;;;;17.45;4.25;;;10.30;99.90;;;;;;5079456;28;20111;-69
2021/04/23 08:26:44;;;;;;;11.85;3.95;;;10.30;99.90;;;;;;5082303;28;20036;-69
2021/04/23 08:29:11;;;;;;;9.73;3.83;;;10.20;99.90;;;;;;5074443;28;20021;-71
2021/04/23 08:31:41;;;;;;;8.25;4.18;;;10.30;99.90;;;;;;5078454;28;20035;-70
2021/04/23 08:34:07;;;;;;;15.52;4.22;;;10.30;99.90;;;;;;5072259;28;20029;-70
2021/04/23 08:36:33;;;;;;;12.00;4.72;;;10.70;99.90;;;;;;5068779;28;20503;-69
2021/04/23 08:38:59;;;;;;;7.70;3.63;;;10.60;99.90;;;;;;5073316;28;20041;-69
2021/04/23 08:41:25;;;;;;;12.15;3.85;;;10.90;99.90;;;;;;5070140;28;20027;-69
2021/04/23 08:43:51;;;;;;;9.32;3.85;;;11.00;99.90;;;;;;5059980;28;20033;-71
2021/04/23 08:46:16;;;;;;;15.85;4.35;;;11.00;99.90;;;;;;5075760;28;20024;-71
2021/04/23 08:48:42;;;;;;;12.52;4.28;;;11.00;99.90;;;;;;5070401;28;20052;-71
2021/04/23 08:51:08;;;;;;;10.88;4.10;;;11.00;99.90;;;;;;5067891;28;20028;-70
2021/04/23 08:53:35;;;;;;;13.95;4.55;;;11.20;99.90;;;;;;5063859;28;20151;-71
2021/04/23 08:56:02;;;;;;;22.95;5.10;;;11.40;99.90;;;;;;5068478;28;20024;-71
2021/04/23 08:58:27;;;;;;;14.23;4.53;;;11.70;99.90;;;;;;5075019;28;20043;-70
2021/04/23 09:00:53;;;;;;;15.52;4.57;;;11.80;99.90;;;;;;5066972;28;20021;-71
2021/04/23 09:03:22;;;;;;;12.02;4.40;;;11.80;99.90;;;;;;5063655;28;20032;-71
2021/04/23 09:06:23;;;;;;;16.98;3.78;;;12.10;99.90;;;;;;5069667;28;20031;-69
2021/04/23 09:08:52;;;;;;;11.02;3.75;;;12.10;99.90;;;;;;5071544;28;20036;-70
2021/04/23 09:11:18;;;;;;;12.55;3.75;;;12.00;99.90;;;;;;5076618;28;20125;-69
2021/04/23 09:13:56;;;;;;;11.18;4.30;;;11.90;99.60;;;;;;5073104;28;20469;-70
2021/04/23 09:16:24;;;;;;;9.35;4.40;;;12.10;99.90;;;;;;5065059;28;20104;-69
2021/04/23 09:18:49;;;;;;;8.73;3.63;;;12.10;99.90;;;;;;5073276;28;20569;-70
2021/04/23 09:21:16;;;;;;;9.70;3.65;;;12.30;99.60;;;;;;5067353;28;20107;-69
2021/04/23 09:23:53;;;;;;;9.30;3.88;;;12.20;99.40;;;;;;5072329;28;20052;-71
2021/04/23 09:26:32;;;;;;;10.13;4.32;;;12.30;99.20;;;;;;5062191;28;20412;-70
2021/04/23 09:28:58;;;;;;;13.20;4.30;;;12.50;99.40;;;;;;5071462;28;20486;-71
2021/04/23 09:31:33;;;;;;;8.73;3.50;;;12.80;99.90;;;;;;5071589;28;20023;-71
2021/04/23 09:34:02;;;;;;;10.80;4.25;;;12.90;99.90;;;;;;5070221;28;20114;-71
2021/04/23 09:36:36;;;;;;;9.38;4.18;;;13.00;99.50;;;;;;5078119;28;20552;-71
2021/04/23 09:39:07;;;;;;;10.95;3.97;;;12.90;97.90;;;;;;5062921;28;20037;-70
2021/04/23 09:41:34;;;;;;;10.73;3.67;;;13.10;98.10;;;;;;5069093;28;20040;-71
2021/04/23 09:43:59;;;;;;;10.98;3.85;;;13.30;98.20;;;;;;5068752;28;20036;-71
2021/04/23 09:46:36;;;;;;;12.05;4.10;;;13.10;98.80;;;;;;5068551;28;20016;-70
2021/04/23 09:49:15;;;;;;;6.72;3.80;;;13.00;98.00;;;;;;5065830;28;20133;-69
2021/04/23 09:51:41;;;;;;;12.13;3.58;;;13.20;97.80;;;;;;5062016;28;20031;-69
2021/04/23 09:54:19;;;;;;;13.23;4.10;;;13.40;97.50;;;;;;5077344;28;20029;-69
2021/04/23 09:56:44;;;;;;;8.27;3.30;;;13.40;97.00;;;;;;5076875;28;20125;-69
2021/04/23 09:59:45;;;;;;;9.63;3.92;;;13.30;96.80;;;;;;5070174;28;20492;-68
2021/04/23 10:02:14;;;;;;;8.55;4.22;;;13.30;96.80;;;;;;5063755;28;20025;-69
2021/04/23 10:04:40;;;;;;;12.15;3.78;;;13.40;97.20;;;;;;5065494;28;20447;-69
2021/04/23 10:07:24;;;;;;;11.15;4.28;;;13.50;96.10;;;;;;5063488;28;20052;-69
2021/04/23 10:10:09;;;;;;;10.40;4.00;;;13.80;97.30;;;;;;5061354;28;20082;-69
2021/04/23 10:12:43;;;;;;;12.93;3.75;;;14.00;97.00;;;;;;5068607;28;20024;-69
2021/04/23 10:15:21;;;;;;;7.65;3.33;;;13.80;95.60;;;;;;5067212;28;20468;-69
2021/04/23 10:18:08;;;;;;;10.13;3.70;;;14.10;95.10;;;;;;5075435;28;20059;-69
2021/04/23 10:20:38;;;;;;;12.60;3.03;;;14.20;93.60;;;;;;5069741;28;20016;-69
2021/04/23 10:23:06;;;;;;;12.07;3.40;;;14.20;93.30;;;;;;5064111;28;20028;-69
2021/04/23 10:25:32;;;;;;;11.32;3.53;;;14.40;93.40;;;;;;5068474;28;20387;-69
2021/04/23 10:28:00;;;;;;;5.93;3.15;;;14.60;93.70;;;;;;5072689;28;20075;-71
2021/04/23 10:30:28;;;;;;;10.70;4.28;;;14.60;93.80;;;;;;5063529;28;20780;-71
2021/04/23 10:32:56;;;;;;;11.82;3.53;;;14.70;92.90;;;;;;5064621;28;20032;-70
2021/04/23 10:35:25;;;;;;;8.38;3.55;;;15.00;94.90;;;;;;5070923;28;20504;-71
2021/04/23 10:37:52;;;;;;;9.93;4.20;;;15.10;92.90;;;;;;5059999;28;20477;-71
2021/04/23 10:40:21;;;;;;;10.18;4.32;;;15.00;92.50;;;;;;5075024;28;20115;-70
2021/04/23 10:42:54;;;;;;;8.02;3.42;;;14.90;93.80;;;;;;5067708;28;20024;-72
2021/04/23 10:45:28;;;;;;;8.45;3.92;;;15.00;91.30;;;;;;5073014;28;20063;-71
2021/04/23 10:47:56;;;;;;;14.60;3.78;;;15.20;92.40;;;;;;5068169;28;20032;-71
2021/04/23 10:50:25;;;;;;;8.90;3.75;;;15.30;91.80;;;;;;5065333;28;20038;-71
2021/04/23 10:53:09;;;;;;;10.65;4.15;;;15.50;91.50;;;;;;5066385;28;20491;-71
2021/04/23 10:55:53;;;;;;;12.13;4.07;;;15.50;91.80;;;;;;5065694;28;20058;-70
2021/04/23 10:58:19;;;;;;;9.93;3.35;;;15.60;91.40;;;;;;5067696;28;20032;-69
2021/04/23 11:00:48;;;;;;;8.95;4.18;;;15.30;92.10;;;;;;5069418;28;20029;-69
2021/04/23 11:03:30;;;;;;;14.70;4.38;;;15.40;92.30;;;;;;5067954;28;20024;-70
2021/04/23 11:05:59;;;;;;;12.52;3.83;;;15.60;93.00;;;;;;5063532;28;20035;-70
2021/04/23 11:08:27;;;;;;;8.65;3.80;;;15.80;90.90;;;;;;5074471;28;20050;-71
2021/04/23 11:11:02;;;;;;;7.47;4.10;;;15.60;91.10;;;;;;5071940;28;20020;-70
2021/04/23 11:13:29;;;;;;;11.80;4.00;;;15.70;90.50;;;;;;5065353;28;20107;-70
2021/04/23 11:18:59;;;;;;;9.13;4.25;;;15.70;89.40;;;;;;5068465;28;20481;-70
2021/04/23 11:21:30;;;;;;;12.00;4.47;;;15.80;90.10;;;;;;5070156;28;20488;-70
2021/04/23 11:24:16;;;;;;;11.27;4.03;;;16.00;90.00;;;;;;5068591;28;20103;-69
2021/04/23 11:29:20;;;;;;;9.85;4.03;;;16.10;88.60;;;;;;5069718;28;20025;-71
2021/04/23 11:32:05;;;;;;;9.43;4.60;;;16.30;86.90;;;;;;5072495;28;20107;-69
2021/04/23 11:34:33;;;;;;;10.65;4.75;;;16.50;90.40;;;;;;5073780;28;20081;-71
2021/04/23 11:37:06;;;;;;;14.18;5.15;;;16.60;90.80;;;;;;5066168;28;20055;-70
2021/04/23 11:39:33;;;;;;;12.55;4.47;;;16.50;89.30;;;;;;5071934;28;20044;-70
2021/04/23 11:42:21;;;;;;;12.95;4.75;;;15.80;88.50;;;;;;5063837;28;20069;-69
2021/04/23 11:45:05;;;;;;;12.63;4.82;;;15.90;90.40;;;;;;5070613;28;20020;-69
2021/04/23 11:47:39;;;;;;;12.82;4.95;;;16.00;87.60;;;;;;5071712;28;20550;-69
2021/04/23 11:50:29;;;;;;;10.73;4.78;;;15.50;87.30;;;;;;5079798;28;20036;-69
2021/04/23 11:53:04;;;;;;;14.55;4.47;;;15.70;89.30;;;;;;5066941;28;20021;-69
2021/04/23 11:55:32;;;;;;;11.10;5.28;;;15.90;88.40;;;;;;5078320;28;20084;-69
2021/04/23 11:58:21;;;;;;;15.52;5.53;;;16.10;87.70;;;;;;5068623;28;20099;-69
2021/04/23 12:00:50;;;;;;;13.77;5.40;;;16.00;89.40;;;;;;5070699;28;20392;-68
2021/04/23 12:03:19;;;;;;;9.20;4.40;;;16.40;90.10;;;;;;5063061;28;20051;-70
2021/04/23 12:05:50;;;;;;;8.10;3.92;;;16.70;88.80;;;;;;5073770;28;20016;-70
2021/04/23 12:08:17;;;;;;;11.93;5.05;;;16.60;87.60;;;;;;5066532;28;20380;-70
2021/04/23 12:10:46;;;;;;;11.75;4.88;;;16.70;85.60;;;;;;5075885;28;20020;-69
2021/04/23 12:13:18;;;;;;;15.07;4.20;;;16.70;86.50;;;;;;5073780;28;20193;-69
2021/04/23 12:15:46;;;;;;;12.45;4.68;;;16.80;86.00;;;;;;5076696;28;20058;-70
2021/04/23 12:18:13;;;;;;;12.40;4.75;;;16.90;84.80;;;;;;5075755;28;20044;-71
2021/04/23 12:20:41;;;;;;;9.77;4.50;;;17.00;88.60;;;;;;5077422;28;20532;-71
2021/04/23 12:23:21;;;;;;;7.70;4.32;;;17.10;89.40;;;;;;5072170;28;20020;-72
2021/04/23 12:25:58;;;;;;;11.68;4.85;;;16.90;85.40;;;;;;5076908;28;20032;-72
2021/04/23 12:28:38;;;;;;;11.60;4.95;;;17.00;84.90;;;;;;5074095;28;20086;-72
2021/04/23 12:31:23;;;;;;;8.23;5.22;;;17.20;87.90;;;;;;5068479;28;20449;-72
2021/04/23 12:33:53;;;;;;;10.32;4.60;;;17.30;88.10;;;;;;5075612;28;20059;-69
2021/04/23 12:36:22;;;;;;;10.73;5.72;;;17.40;86.80;;;;;;5065757;28;20021;-69
2021/04/23 12:38:52;;;;;;;12.50;5.18;;;17.40;89.10;;;;;;5075298;28;20042;-69
2021/04/23 12:41:24;;;;;;;14.18;6.07;;;17.40;85.60;;;;;;5070868;28;20029;-69
2021/04/23 12:43:52;;;;;;;8.20;5.35;;;17.30;85.80;;;;;;5068372;28;20017;-69
2021/04/23 12:46:25;;;;;;;12.48;5.95;;;17.50;85.90;;;;;;5070772;28;20024;-70
2021/04/23 12:49:10;;;;;;;10.45;5.03;;;17.30;85.70;;;;;;5067881;28;20032;-69
2021/04/23 12:51:44;;;;;;;18.38;6.00;;;17.40;84.70;;;;;;5065937;28;20044;-69
2021/04/23 12:54:11;;;;;;;10.68;5.68;;;17.40;85.70;;;;;;5072471;28;20036;-70
2021/04/23 12:56:38;;;;;;;12.35;5.93;;;17.40;86.40;;;;;;5065431;28;20040;-72
2021/04/23 12:59:05;;;;;;;12.98;6.05;;;17.50;85.60;;;;;;5070809;28;20044;-72